sensor_id;sensor_type;location;lat;lon;timestamp;pressure;altitude;pressure_sealevel;temperature;humidity
9523;BME280;63165;43.016;25.784;2023-04-05T00:01:28;99627.31;;;6.69;98.75
9523;BME280;63165;43.016;25.784;2023-04-05T00:03:56;99622.13;;;6.69;98.96
9523;BME280;63165;43.016;25.784;2023-04-05T00:06:24;99626.47;;;6.70;98.86
9523;BME280;63165;43.016;25.784;2023-04-05T00:08:53;99619.56;;;6.68;99.51
9523;BME280;63165;43.016;25.784;2023-04-05T00:11:21;99619.53;;;6.69;98.75
9523;BME280;63165;43.016;25.784;2023-04-05T00:13:48;99610.88;;;6.70;99.53
9523;BME280;63165;43.016;25.784;2023-04-05T00:16:18;99620.34;;;6.76;99.54
9523;BME280;63165;43.016;25.784;2023-04-05T00:18:46;99604.75;;;6.74;99.41
9523;BME280;63165;43.016;25.784;2023-04-05T00:21:16;99619.44;;;6.82;99.21
9523;BME280;63165;43.016;25.784;2023-04-05T00:23:46;99618.63;;;6.76;99.50
9523;BME280;63165;43.016;25.784;2023-04-05T00:26:16;99616.84;;;6.85;99.71
9523;BME280;63165;43.016;25.784;2023-04-05T00:28:43;99581.44;;;6.65;99.71
9523;BME280;63165;43.016;25.784;2023-04-05T00:31:10;99582.28;;;6.70;99.33
9523;BME280;63165;43.016;25.784;2023-04-05T00:33:39;99612.56;;;6.77;99.64
9523;BME280;63165;43.016;25.784;2023-04-05T00:36:10;99584.09;;;6.60;99.58
9523;BME280;63165;43.016;25.784;2023-04-05T00:38:37;99603.13;;;6.63;99.12
9523;BME280;63165;43.016;25.784;2023-04-05T00:41:05;99623.03;;;6.68;99.44
9523;BME280;63165;43.016;25.784;2023-04-05T00:43:32;99621.34;;;6.58;99.41
9523;BME280;63165;43.016;25.784;2023-04-05T00:46:00;99610.09;;;6.57;99.71
9523;BME280;63165;43.016;25.784;2023-04-05T00:48:28;99635.19;;;6.63;99.65
9523;BME280;63165;43.016;25.784;2023-04-05T00:50:57;99607.56;;;6.45;99.63
9523;BME280;63165;43.016;25.784;2023-04-05T00:53:25;99617.09;;;6.49;99.76
9523;BME280;63165;43.016;25.784;2023-04-05T00:55:53;99628.31;;;6.54;100.00
9523;BME280;63165;43.016;25.784;2023-04-05T00:58:21;99630.91;;;6.56;100.00
9523;BME280;63165;43.016;25.784;2023-04-05T01:00:54;99589.53;;;6.25;100.00
9523;BME280;63165;43.016;25.784;2023-04-05T01:03:28;99596.44;;;6.29;99.86
9523;BME280;63165;43.016;25.784;2023-04-05T01:06:05;99620.56;;;6.50;100.00
9523;BME280;63165;43.016;25.784;2023-04-05T01:08:42;99608.53;;;6.35;100.00
9523;BME280;63165;43.016;25.784;2023-04-05T01:11:12;99628.34;;;6.50;99.51
9523;BME280;63165;43.016;25.784;2023-04-05T01:13:44;99636.19;;;6.44;99.31
9523;BME280;63165;43.016;25.784;2023-04-05T01:16:11;99634.44;;;6.44;99.25
9523;BME280;63165;43.016;25.784;2023-04-05T01:18:38;99650.03;;;6.43;99.41
9523;BME280;63165;43.016;25.784;2023-04-05T01:24:14;99637.94;;;6.40;98.83
9523;BME280;63165;43.016;25.784;2023-04-05T01:26:55;99626.72;;;6.33;99.18
9523;BME280;63165;43.016;25.784;2023-04-05T01:32:29;99642.31;;;6.33;98.88
9523;BME280;63165;43.016;25.784;2023-04-05T01:35:03;99630.22;;;6.26;98.21
9523;BME280;63165;43.016;25.784;2023-04-05T01:37:33;99627.66;;;6.23;97.84
9523;BME280;63165;43.016;25.784;2023-04-05T01:40:01;99661.41;;;6.26;98.09
9523;BME280;63165;43.016;25.784;2023-04-05T01:42:30;99657.94;;;6.24;97.68
9523;BME280;63165;43.016;25.784;2023-04-05T01:44:59;99664.03;;;6.23;97.92
9523;BME280;63165;43.016;25.784;2023-04-05T01:47:27;99665.75;;;6.22;97.62
9523;BME280;63165;43.016;25.784;2023-04-05T01:49:54;99659.69;;;6.22;97.45
9523;BME280;63165;43.016;25.784;2023-04-05T01:52:21;99661.44;;;6.23;97.38
9523;BME280;63165;43.016;25.784;2023-04-05T01:54:48;99651.94;;;6.11;97.16
9523;BME280;63165;43.016;25.784;2023-04-05T01:57:16;99649.34;;;6.13;97.03
9523;BME280;63165;43.016;25.784;2023-04-05T01:59:43;99651.09;;;6.14;97.44
9523;BME280;63165;43.016;25.784;2023-04-05T02:02:11;99651.09;;;6.14;97.25
9523;BME280;63165;43.016;25.784;2023-04-05T02:04:39;99651.13;;;6.06;97.10
9523;BME280;63165;43.016;25.784;2023-04-05T02:07:07;99636.41;;;6.02;96.72
9523;BME280;63165;43.016;25.784;2023-04-05T02:09:34;99643.31;;;6.09;96.61
9523;BME280;63165;43.016;25.784;2023-04-05T02:12:01;99649.34;;;6.11;96.74
9523;BME280;63165;43.016;25.784;2023-04-05T02:14:29;99643.34;;;6.06;96.63
9523;BME280;63165;43.016;25.784;2023-04-05T02:16:56;99645.00;;;6.13;97.17
9523;BME280;63165;43.016;25.784;2023-04-05T02:19:24;99660.59;;;6.13;96.77
9523;BME280;63165;43.016;25.784;2023-04-05T02:21:54;99651.94;;;6.14;96.98
9523;BME280;63165;43.016;25.784;2023-04-05T02:24:21;99658.88;;;6.14;97.18
9523;BME280;63165;43.016;25.784;2023-04-05T02:26:48;99637.25;;;6.06;96.98
9523;BME280;63165;43.016;25.784;2023-04-05T02:29:16;99653.69;;;6.11;96.53
9523;BME280;63165;43.016;25.784;2023-04-05T02:31:43;99649.41;;;6.00;96.48
9523;BME280;63165;43.016;25.784;2023-04-05T02:34:10;99652.84;;;6.09;96.00
9523;BME280;63165;43.016;25.784;2023-04-05T02:36:40;99649.38;;;6.02;96.11
9523;BME280;63165;43.016;25.784;2023-04-05T02:39:08;99656.28;;;6.08;96.31
9523;BME280;63165;43.016;25.784;2023-04-05T02:41:36;99661.53;;;6.01;95.93
9523;BME280;63165;43.016;25.784;2023-04-05T02:44:03;99657.19;;;6.05;95.87
9523;BME280;63165;43.016;25.784;2023-04-05T02:46:30;99665.84;;;5.98;95.63
9523;BME280;63165;43.016;25.784;2023-04-05T02:48:57;99650.28;;;5.95;95.52
9523;BME280;63165;43.016;25.784;2023-04-05T02:51:25;99648.53;;;5.92;95.08
9523;BME280;63165;43.016;25.784;2023-04-05T02:53:54;99667.59;;;5.96;94.90
9523;BME280;63165;43.016;25.784;2023-04-05T02:56:21;99650.28;;;5.95;95.00
9523;BME280;63165;43.016;25.784;2023-04-05T02:58:49;99639.94;;;5.82;95.15
9523;BME280;63165;43.016;25.784;2023-04-05T03:01:16;99669.34;;;5.97;95.05
9523;BME280;63165;43.016;25.784;2023-04-05T03:03:45;99655.47;;;5.95;94.96
9523;BME280;63165;43.016;25.784;2023-04-05T03:06:12;99673.66;;;5.99;94.58
9523;BME280;63165;43.016;25.784;2023-04-05T03:08:40;99673.66;;;5.96;94.12
9523;BME280;63165;43.016;25.784;2023-04-05T03:11:10;99630.44;;;5.74;94.13
9523;BME280;63165;43.016;25.784;2023-04-05T03:13:37;99657.22;;;5.85;94.13
9523;BME280;63165;43.016;25.784;2023-04-05T03:16:05;99666.75;;;5.95;94.92
9523;BME280;63165;43.016;25.784;2023-04-05T03:18:33;99658.09;;;5.84;94.06
9523;BME280;63165;43.016;25.784;2023-04-05T03:21:00;99658.09;;;5.84;94.21
9523;BME280;63165;43.016;25.784;2023-04-05T03:23:29;99653.78;;;5.84;94.14
9523;BME280;63165;43.016;25.784;2023-04-05T03:25:58;99668.47;;;5.93;94.22
9523;BME280;63165;43.016;25.784;2023-04-05T03:28:28;99668.47;;;5.93;94.16
9523;BME280;63165;43.016;25.784;2023-04-05T03:30:57;99674.50;;;5.91;94.30
9523;BME280;63165;43.016;25.784;2023-04-05T03:33:24;99673.66;;;5.93;94.62
9523;BME280;63165;43.016;25.784;2023-04-05T03:35:51;99676.25;;;5.96;94.19
9523;BME280;63165;43.016;25.784;2023-04-05T03:38:19;99678.00;;;5.87;94.26
9523;BME280;63165;43.016;25.784;2023-04-05T03:40:46;99679.69;;;5.91;94.31
9523;BME280;63165;43.016;25.784;2023-04-05T03:43:13;99671.06;;;5.89;94.44
9523;BME280;63165;43.016;25.784;2023-04-05T03:45:42;99666.72;;;5.92;94.13
9523;BME280;63165;43.016;25.784;2023-04-05T03:48:10;99684.03;;;6.02;94.70
9523;BME280;63165;43.016;25.784;2023-04-05T03:50:37;99665.88;;;5.93;93.93
9523;BME280;63165;43.016;25.784;2023-04-05T03:53:04;99684.88;;;6.03;94.33
9523;BME280;63165;43.016;25.784;2023-04-05T03:55:31;99654.66;;;5.82;94.00
9523;BME280;63165;43.016;25.784;2023-04-05T03:57:58;99679.69;;;5.92;93.65
9523;BME280;63165;43.016;25.784;2023-04-05T04:00:26;99697.88;;;5.98;92.94
9523;BME280;63165;43.016;25.784;2023-04-05T04:02:55;99711.75;;;5.97;93.16
9523;BME280;63165;43.016;25.784;2023-04-05T04:05:22;99694.41;;;5.87;93.40
9523;BME280;63165;43.016;25.784;2023-04-05T04:07:49;99710.84;;;6.00;93.53
9523;BME280;63165;43.016;25.784;2023-04-05T04:10:16;99709.13;;;6.05;93.44
9523;BME280;63165;43.016;25.784;2023-04-05T04:12:44;99694.44;;;6.01;93.65
9523;BME280;63165;43.016;25.784;2023-04-05T04:15:11;99713.44;;;6.09;93.84
9523;BME280;63165;43.016;25.784;2023-04-05T04:17:38;99707.41;;;6.02;93.63
9523;BME280;63165;43.016;25.784;2023-04-05T04:20:08;99693.56;;;5.99;93.32
9523;BME280;63165;43.016;25.784;2023-04-05T04:22:36;99708.25;;;6.03;93.19
9523;BME280;63165;43.016;25.784;2023-04-05T04:25:07;99709.16;;;5.90;93.39
9523;BME280;63165;43.016;25.784;2023-04-05T04:27:37;99688.41;;;5.83;92.72
9523;BME280;63165;43.016;25.784;2023-04-05T04:30:09;99717.78;;;6.01;92.97
9523;BME280;63165;43.016;25.784;2023-04-05T04:32:37;99722.13;;;6.00;92.77
9523;BME280;63165;43.016;25.784;2023-04-05T04:35:18;99696.13;;;5.93;92.69
9523;BME280;63165;43.016;25.784;2023-04-05T04:37:46;99706.56;;;5.79;92.28
9523;BME280;63165;43.016;25.784;2023-04-05T04:40:17;99719.53;;;5.91;91.90
9523;BME280;63165;43.016;25.784;2023-04-05T04:42:45;99697.06;;;5.73;92.07
9523;BME280;63165;43.016;25.784;2023-04-05T04:45:13;99697.03;;;5.79;92.24
9523;BME280;63165;43.016;25.784;2023-04-05T04:47:42;99632.25;;;5.47;92.21
9523;BME280;63165;43.016;25.784;2023-04-05T04:50:10;99653.00;;;5.59;92.01
9523;BME280;63165;43.016;25.784;2023-04-05T04:52:39;99711.75;;;5.97;91.87
9523;BME280;63165;43.016;25.784;2023-04-05T04:55:08;99623.66;;;5.39;91.02
9523;BME280;63165;43.016;25.784;2023-04-05T04:57:38;99699.63;;;5.87;90.76
9523;BME280;63165;43.016;25.784;2023-04-05T05:00:07;99723.00;;;5.98;90.80
9523;BME280;63165;43.016;25.784;2023-04-05T05:02:39;99704.81;;;5.93;91.23
9523;BME280;63165;43.016;25.784;2023-04-05T05:05:09;99678.88;;;5.78;91.28
9523;BME280;63165;43.016;25.784;2023-04-05T05:07:39;99620.16;;;5.48;90.95
9523;BME280;63165;43.016;25.784;2023-04-05T05:10:08;99662.53;;;5.57;90.57
9523;BME280;63165;43.016;25.784;2023-04-05T05:12:36;99659.06;;;5.63;90.40
9523;BME280;63165;43.016;25.784;2023-04-05T05:15:04;99725.53;;;6.13;90.14
9523;BME280;63165;43.016;25.784;2023-04-05T05:17:32;99734.19;;;6.12;89.92
9523;BME280;63165;43.016;25.784;2023-04-05T05:19:59;99736.81;;;6.15;90.54
9523;BME280;63165;43.016;25.784;2023-04-05T05:22:29;99724.63;;;6.22;89.52
9523;BME280;63165;43.016;25.784;2023-04-05T05:24:58;99729.03;;;6.05;88.94
9523;BME280;63165;43.016;25.784;2023-04-05T05:27:25;99720.31;;;6.18;89.10
9523;BME280;63165;43.016;25.784;2023-04-05T05:29:52;99724.59;;;6.28;89.18
9523;BME280;63165;43.016;25.784;2023-04-05T05:32:20;99713.34;;;6.29;88.78
9523;BME280;63165;43.016;25.784;2023-04-05T05:34:47;99704.69;;;6.29;89.65
9523;BME280;63165;43.016;25.784;2023-04-05T05:37:14;99713.25;;;6.45;88.89
9523;BME280;63165;43.016;25.784;2023-04-05T05:39:42;99696.84;;;6.38;88.71
9523;BME280;63165;43.016;25.784;2023-04-05T05:42:11;99721.88;;;6.56;88.01
9523;BME280;63165;43.016;25.784;2023-04-05T05:44:39;99709.72;;;6.58;88.17
9523;BME280;63165;43.016;25.784;2023-04-05T05:47:06;99700.22;;;6.55;88.01
9523;BME280;63165;43.016;25.784;2023-04-05T05:49:33;99723.50;;;6.74;88.13
9523;BME280;63165;43.016;25.784;2023-04-05T05:52:02;99699.25;;;6.69;87.59
9523;BME280;63165;43.016;25.784;2023-04-05T05:54:29;99719.94;;;6.89;86.74
9523;BME280;63165;43.016;25.784;2023-04-05T05:56:56;99724.22;;;6.94;86.16
9523;BME280;63165;43.016;25.784;2023-04-05T05:59:25;99718.13;;;6.97;86.03
9523;BME280;63165;43.016;25.784;2023-04-05T06:01:53;99725.94;;;7.00;85.53
9523;BME280;63165;43.016;25.784;2023-04-05T06:04:20;99704.28;;;6.98;85.50
9523;BME280;63165;43.016;25.784;2023-04-05T06:06:48;99712.88;;;7.03;85.16
9523;BME280;63165;43.016;25.784;2023-04-05T06:09:15;99705.97;;;7.00;84.53
9523;BME280;63165;43.016;25.784;2023-04-05T06:11:43;99730.09;;;7.23;84.46
9523;BME280;63165;43.016;25.784;2023-04-05T06:14:10;99719.75;;;7.13;84.55
9523;BME280;63165;43.016;25.784;2023-04-05T06:16:38;99728.41;;;7.18;84.00
9523;BME280;63165;43.016;25.784;2023-04-05T06:19:06;99735.28;;;7.24;83.89
9523;BME280;63165;43.016;25.784;2023-04-05T06:21:33;99722.25;;;7.26;83.67
9523;BME280;63165;43.016;25.784;2023-04-05T06:24:00;99715.31;;;7.26;84.11
9523;BME280;63165;43.016;25.784;2023-04-05T06:26:27;99729.09;;;7.37;83.92
9523;BME280;63165;43.016;25.784;2023-04-05T06:28:55;99740.28;;;7.44;82.45
9523;BME280;63165;43.016;25.784;2023-04-05T06:31:25;99718.78;;;7.24;82.73
9523;BME280;63165;43.016;25.784;2023-04-05T06:33:55;99712.72;;;7.28;82.42
9523;BME280;63165;43.016;25.784;2023-04-05T06:36:22;99740.25;;;7.52;82.96
9523;BME280;63165;43.016;25.784;2023-04-05T06:38:51;99754.03;;;7.62;83.18
9523;BME280;63165;43.016;25.784;2023-04-05T06:41:19;99757.56;;;7.57;81.85
9523;BME280;63165;43.016;25.784;2023-04-05T06:43:46;99747.16;;;7.54;80.93
9523;BME280;63165;43.016;25.784;2023-04-05T06:46:13;99754.06;;;7.57;80.82
9523;BME280;63165;43.016;25.784;2023-04-05T06:48:41;99743.72;;;7.49;80.22
9523;BME280;63165;43.016;25.784;2023-04-05T06:51:10;99751.44;;;7.62;80.46
9523;BME280;63165;43.016;25.784;2023-04-05T06:53:37;99747.09;;;7.64;81.04
9523;BME280;63165;43.016;25.784;2023-04-05T06:56:05;99755.66;;;7.73;81.20
9523;BME280;63165;43.016;25.784;2023-04-05T06:58:32;99742.72;;;7.64;80.88
9523;BME280;63165;43.016;25.784;2023-04-05T07:01:00;99762.56;;;7.76;80.44
9523;BME280;63165;43.016;25.784;2023-04-05T07:03:27;99778.22;;;7.74;79.81
9523;BME280;63165;43.016;25.784;2023-04-05T07:05:56;99765.22;;;7.74;79.63
9523;BME280;63165;43.016;25.784;2023-04-05T07:08:28;99766.88;;;7.80;79.22
9523;BME280;63165;43.016;25.784;2023-04-05T07:10:55;99772.06;;;7.82;78.43
9523;BME280;63165;43.016;25.784;2023-04-05T07:13:23;99771.19;;;7.84;78.67
9523;BME280;63165;43.016;25.784;2023-04-05T07:15:51;99768.56;;;7.86;79.34
9523;BME280;63165;43.016;25.784;2023-04-05T07:18:18;99771.19;;;7.84;78.94
9523;BME280;63165;43.016;25.784;2023-04-05T07:20:46;99767.78;;;7.76;78.94
9523;BME280;63165;43.016;25.784;2023-04-05T07:23:17;99763.38;;;7.84;78.98
9523;BME280;63165;43.016;25.784;2023-04-05T07:25:45;99769.31;;;7.95;78.94
9523;BME280;63165;43.016;25.784;2023-04-05T07:28:12;99777.06;;;8.02;79.38
9523;BME280;63165;43.016;25.784;2023-04-05T07:30:39;99767.50;;;8.02;79.73
9523;BME280;63165;43.016;25.784;2023-04-05T07:33:07;99779.69;;;8.02;79.88
9523;BME280;63165;43.016;25.784;2023-04-05T07:35:34;99763.19;;;8.03;79.24
9523;BME280;63165;43.016;25.784;2023-04-05T07:38:01;99779.69;;;8.02;78.74
9523;BME280;63165;43.016;25.784;2023-04-05T07:40:28;99774.47;;;8.03;78.78
9523;BME280;63165;43.016;25.784;2023-04-05T07:42:57;99760.53;;;8.06;78.50
9523;BME280;63165;43.016;25.784;2023-04-05T07:45:24;99775.28;;;8.10;78.71
9523;BME280;63165;43.016;25.784;2023-04-05T07:47:52;99786.53;;;8.10;78.63
9523;BME280;63165;43.016;25.784;2023-04-05T07:50:19;99758.00;;;8.00;79.16
9523;BME280;63165;43.016;25.784;2023-04-05T07:52:46;99755.31;;;8.06;78.79
9523;BME280;63165;43.016;25.784;2023-04-05T07:55:14;99773.41;;;8.20;78.85
9523;BME280;63165;43.016;25.784;2023-04-05T07:57:41;99775.06;;;8.27;79.03
9523;BME280;63165;43.016;25.784;2023-04-05T08:00:11;99771.56;;;8.29;79.72
9523;BME280;63165;43.016;25.784;2023-04-05T08:02:40;99762.09;;;8.22;79.23
9523;BME280;63165;43.016;25.784;2023-04-05T08:05:07;99762.09;;;8.22;78.96
9523;BME280;63165;43.016;25.784;2023-04-05T08:07:34;99778.44;;;8.35;78.35
9523;BME280;63165;43.016;25.784;2023-04-05T08:10:02;99781.03;;;8.36;78.58
9523;BME280;63165;43.016;25.784;2023-04-05T08:12:30;99780.97;;;8.40;78.28
9523;BME280;63165;43.016;25.784;2023-04-05T08:14:57;99739.56;;;8.18;77.53
9523;BME280;63165;43.016;25.784;2023-04-05T08:17:26;99767.16;;;8.33;77.30
9523;BME280;63165;43.016;25.784;2023-04-05T08:19:54;99795.59;;;8.54;77.09
9523;BME280;63165;43.016;25.784;2023-04-05T08:22:22;99777.34;;;8.56;76.63
9523;BME280;63165;43.016;25.784;2023-04-05T08:24:49;99772.97;;;8.58;76.92
9523;BME280;63165;43.016;25.784;2023-04-05T08:27:16;99785.00;;;8.70;76.52
9523;BME280;63165;43.016;25.784;2023-04-05T08:29:44;99779.59;;;8.82;76.63
9523;BME280;63165;43.016;25.784;2023-04-05T08:32:11;99764.00;;;8.79;76.82
9523;BME280;63165;43.016;25.784;2023-04-05T08:34:40;99781.22;;;8.92;75.41
9523;BME280;63165;43.016;25.784;2023-04-05T08:37:07;99787.19;;;8.98;75.39
9523;BME280;63165;43.016;25.784;2023-04-05T08:39:34;99783.63;;;9.03;75.53
9523;BME280;63165;43.016;25.784;2023-04-05T08:42:07;99790.56;;;9.07;75.35
9523;BME280;63165;43.016;25.784;2023-04-05T08:44:38;99774.94;;;9.06;75.24
9523;BME280;63165;43.016;25.784;2023-04-05T08:47:07;99788.69;;;9.16;75.26
9523;BME280;63165;43.016;25.784;2023-04-05T08:49:43;99774.84;;;9.10;74.75
9523;BME280;63165;43.016;25.784;2023-04-05T08:52:10;99772.22;;;9.10;74.43
9523;BME280;63165;43.016;25.784;2023-04-05T08:54:37;99787.00;;;9.13;73.55
9523;BME280;63165;43.016;25.784;2023-04-05T08:57:06;99792.19;;;9.15;72.98
9523;BME280;63165;43.016;25.784;2023-04-05T08:59:35;99803.50;;;9.15;73.07
9523;BME280;63165;43.016;25.784;2023-04-05T09:02:07;99776.72;;;9.02;72.52
9523;BME280;63165;43.016;25.784;2023-04-05T09:04:42;99798.19;;;9.20;72.48
9523;BME280;63165;43.016;25.784;2023-04-05T09:07:12;99791.19;;;9.22;72.24
9523;BME280;63165;43.016;25.784;2023-04-05T09:09:45;99792.03;;;9.24;71.77
9523;BME280;63165;43.016;25.784;2023-04-05T09:12:13;99780.69;;;9.28;71.97
9523;BME280;63165;43.016;25.784;2023-04-05T09:14:41;99787.50;;;9.37;72.65
9523;BME280;63165;43.016;25.784;2023-04-05T09:17:09;99742.50;;;9.21;72.93
9523;BME280;63165;43.016;25.784;2023-04-05T09:19:36;99776.16;;;9.38;73.05
9523;BME280;63165;43.016;25.784;2023-04-05T09:22:06;99761.31;;;9.43;72.88
9523;BME280;63165;43.016;25.784;2023-04-05T09:24:35;99781.09;;;9.56;73.12
9523;BME280;63165;43.016;25.784;2023-04-05T09:27:07;99787.13;;;9.60;72.96
9523;BME280;63165;43.016;25.784;2023-04-05T09:29:34;99788.78;;;9.64;72.56
9523;BME280;63165;43.016;25.784;2023-04-05T09:32:03;99781.06;;;9.58;72.58
9523;BME280;63165;43.016;25.784;2023-04-05T09:34:31;99782.88;;;9.54;72.46
9523;BME280;63165;43.016;25.784;2023-04-05T09:36:59;99787.00;;;9.66;71.55
9523;BME280;63165;43.016;25.784;2023-04-05T09:39:31;99780.97;;;9.62;71.35
9523;BME280;63165;43.016;25.784;2023-04-05T09:42:04;99781.84;;;9.61;71.56
9523;BME280;63165;43.016;25.784;2023-04-05T09:44:50;99787.69;;;9.77;71.28
9523;BME280;63165;43.016;25.784;2023-04-05T09:47:22;99786.81;;;9.78;71.68
9523;BME280;63165;43.016;25.784;2023-04-05T09:49:52;99726.53;;;9.39;71.63
9523;BME280;63165;43.016;25.784;2023-04-05T09:52:23;99768.72;;;9.67;70.79
9523;BME280;63165;43.016;25.784;2023-04-05T09:54:53;99781.44;;;9.86;71.03
9523;BME280;63165;43.016;25.784;2023-04-05T09:57:21;99781.50;;;9.81;71.07
9523;BME280;63165;43.016;25.784;2023-04-05T09:59:51;99767.75;;;9.71;70.71
9523;BME280;63165;43.016;25.784;2023-04-05T10:02:18;99788.34;;;9.90;71.29
9523;BME280;63165;43.016;25.784;2023-04-05T10:04:46;99786.41;;;10.00;71.33
9523;BME280;63165;43.016;25.784;2023-04-05T10:07:15;99764.00;;;9.88;71.78
9523;BME280;63165;43.016;25.784;2023-04-05T10:09:44;99765.59;;;9.95;71.51
9523;BME280;63165;43.016;25.784;2023-04-05T10:12:22;99793.16;;;10.11;71.12
9523;BME280;63165;43.016;25.784;2023-04-05T10:14:50;99781.66;;;10.22;70.85
9523;BME280;63165;43.016;25.784;2023-04-05T10:17:22;99760.97;;;10.08;69.84
9523;BME280;63165;43.016;25.784;2023-04-05T10:20:04;99791.19;;;10.23;69.12
9523;BME280;63165;43.016;25.784;2023-04-05T10:22:38;99782.59;;;10.18;68.42
9523;BME280;63165;43.016;25.784;2023-04-05T10:25:13;99781.78;;;10.16;69.02
9523;BME280;63165;43.016;25.784;2023-04-05T10:27:47;99761.09;;;10.02;69.45
9523;BME280;63165;43.016;25.784;2023-04-05T10:30:19;99752.31;;;10.06;69.72
9523;BME280;63165;43.016;25.784;2023-04-05T10:33:00;99755.88;;;10.02;69.31
9523;BME280;63165;43.016;25.784;2023-04-05T10:35:34;99777.28;;;10.21;69.12
9523;BME280;63165;43.016;25.784;2023-04-05T10:38:22;99775.56;;;10.21;69.28
9523;BME280;63165;43.016;25.784;2023-04-05T10:40:53;99775.44;;;10.27;69.38
9523;BME280;63165;43.016;25.784;2023-04-05T10:43:24;99769.28;;;10.28;69.58
9523;BME280;63165;43.016;25.784;2023-04-05T10:45:52;99761.53;;;10.25;68.89
9523;BME280;63165;43.016;25.784;2023-04-05T10:48:31;99779.56;;;10.39;68.53
9523;BME280;63165;43.016;25.784;2023-04-05T10:51:00;99784.63;;;10.48;68.13
9523;BME280;63165;43.016;25.784;2023-04-05T10:53:29;99778.44;;;10.53;67.91
9523;BME280;63165;43.016;25.784;2023-04-05T10:55:57;99779.22;;;10.56;67.52
9523;BME280;63165;43.016;25.784;2023-04-05T10:58:29;99775.72;;;10.57;67.95
9523;BME280;63165;43.016;25.784;2023-04-05T11:00:58;99789.50;;;10.65;68.09
9523;BME280;63165;43.016;25.784;2023-04-05T11:03:44;99790.53;;;10.58;66.85
9523;BME280;63165;43.016;25.784;2023-04-05T11:06:19;99783.75;;;10.49;66.78
9523;BME280;63165;43.016;25.784;2023-04-05T11:08:48;99783.75;;;10.49;67.02
9523;BME280;63165;43.016;25.784;2023-04-05T11:11:16;99749.16;;;10.35;66.70
9523;BME280;63165;43.016;25.784;2023-04-05T11:13:49;99788.16;;;10.47;67.20
9523;BME280;63165;43.016;25.784;2023-04-05T11:16:17;99790.75;;;10.47;66.50
9523;BME280;63165;43.016;25.784;2023-04-05T11:18:44;99779.38;;;10.50;66.41
9523;BME280;63165;43.016;25.784;2023-04-05T11:21:20;99783.78;;;10.48;66.48
9523;BME280;63165;43.016;25.784;2023-04-05T11:24:01;99756.16;;;10.35;66.52
9523;BME280;63165;43.016;25.784;2023-04-05T11:26:33;99780.31;;;10.46;66.86
9523;BME280;63165;43.016;25.784;2023-04-05T11:29:46;99786.34;;;10.51;66.34
9523;BME280;63165;43.016;25.784;2023-04-05T11:32:17;99786.53;;;10.40;66.54
9523;BME280;63165;43.016;25.784;2023-04-05T11:34:45;99777.91;;;10.37;66.60
9523;BME280;63165;43.016;25.784;2023-04-05T11:37:23;99782.13;;;10.44;66.80
9523;BME280;63165;43.016;25.784;2023-04-05T11:40:24;99788.94;;;10.51;65.75
9523;BME280;63165;43.016;25.784;2023-04-05T11:42:58;99750.22;;;10.25;65.41
9523;BME280;63165;43.016;25.784;2023-04-05T11:45:29;99771.84;;;10.35;65.25
9523;BME280;63165;43.016;25.784;2023-04-05T11:47:56;99772.56;;;10.41;65.61
9523;BME280;63165;43.016;25.784;2023-04-05T11:50:27;99767.34;;;10.40;65.27
9523;BME280;63165;43.016;25.784;2023-04-05T11:53:11;99774.97;;;10.51;65.96
9523;BME280;63165;43.016;25.784;2023-04-05T11:55:39;99774.09;;;10.53;66.34
9523;BME280;63165;43.016;25.784;2023-04-05T11:58:14;99773.97;;;10.58;65.64
9523;BME280;63165;43.016;25.784;2023-04-05T12:00:44;99777.41;;;10.60;65.47
9523;BME280;63165;43.016;25.784;2023-04-05T12:03:12;99775.75;;;10.56;65.30
9523;BME280;63165;43.016;25.784;2023-04-05T12:05:47;99782.66;;;10.58;65.44
9523;BME280;63165;43.016;25.784;2023-04-05T12:08:15;99786.06;;;10.63;65.81
9523;BME280;63165;43.016;25.784;2023-04-05T12:10:42;99786.09;;;10.62;65.08
9523;BME280;63165;43.016;25.784;2023-04-05T12:13:10;99766.03;;;10.62;65.36
9523;BME280;63165;43.016;25.784;2023-04-05T12:15:37;99775.25;;;10.79;65.46
9523;BME280;63165;43.016;25.784;2023-04-05T12:18:13;99765.53;;;10.85;65.83
9523;BME280;63165;43.016;25.784;2023-04-05T12:20:41;99760.28;;;10.85;65.50
9523;BME280;63165;43.016;25.784;2023-04-05T12:23:08;99742.19;;;10.76;64.45
9523;BME280;63165;43.016;25.784;2023-04-05T12:25:36;99748.34;;;10.74;64.02
9523;BME280;63165;43.016;25.784;2023-04-05T12:28:05;99776.75;;;10.91;64.57
9523;BME280;63165;43.016;25.784;2023-04-05T12:30:33;99770.81;;;10.82;64.26
9523;BME280;63165;43.016;25.784;2023-04-05T12:33:06;99746.59;;;10.74;64.22
9523;BME280;63165;43.016;25.784;2023-04-05T12:35:37;99744.81;;;10.75;64.33
9523;BME280;63165;43.016;25.784;2023-04-05T12:38:05;99763.94;;;10.78;64.04
9523;BME280;63165;43.016;25.784;2023-04-05T12:40:35;99737.19;;;10.64;63.97
9523;BME280;63165;43.016;25.784;2023-04-05T12:43:04;99760.47;;;10.78;64.43
9523;BME280;63165;43.016;25.784;2023-04-05T12:45:36;99741.44;;;10.69;64.60
9523;BME280;63165;43.016;25.784;2023-04-05T12:48:08;99681.34;;;10.24;64.68
9523;BME280;63165;43.016;25.784;2023-04-05T12:50:42;99768.16;;;10.84;63.91
9523;BME280;63165;43.016;25.784;2023-04-05T12:53:15;99780.41;;;10.83;63.87
9523;BME280;63165;43.016;25.784;2023-04-05T12:55:48;99768.16;;;10.84;64.46
9523;BME280;63165;43.016;25.784;2023-04-05T12:58:16;99769.09;;;10.83;63.93
9523;BME280;63165;43.016;25.784;2023-04-05T13:00:44;99743.16;;;10.71;63.21
9523;BME280;63165;43.016;25.784;2023-04-05T13:03:15;99755.00;;;10.88;63.09
9523;BME280;63165;43.016;25.784;2023-04-05T13:05:46;99768.84;;;10.92;63.35
9523;BME280;63165;43.016;25.784;2023-04-05T13:08:14;99759.13;;;10.97;63.37
9523;BME280;63165;43.016;25.784;2023-04-05T13:10:43;99761.00;;;10.92;63.78
9523;BME280;63165;43.016;25.784;2023-04-05T13:13:11;99754.88;;;10.93;63.95
9523;BME280;63165;43.016;25.784;2023-04-05T13:15:38;99773.84;;;11.03;63.66
9523;BME280;63165;43.016;25.784;2023-04-05T13:18:05;99747.22;;;10.85;64.36
9523;BME280;63165;43.016;25.784;2023-04-05T13:20:33;99748.19;;;10.80;64.17
9523;BME280;63165;43.016;25.784;2023-04-05T13:23:02;99704.91;;;10.66;64.36
9523;BME280;63165;43.016;25.784;2023-04-05T13:25:35;99757.22;;;11.05;64.05